Time;durP1;ratioP1;P1;durP2;ratioP2;P2;SDS_P1;SDS_P2;PMS_P1;PMS_P2;Temp;Humidity;BMP_temperature;BMP_pressure;BME280_temperature;BME280_humidity;BME280_pressure;Samples;Min_cycle;Max_cycle;Signal;HPM_P1;HPM_P2
2021/08/26 00:06:49;;;;;;;47.28;9.23;;;;;;;;;;5039310;28;20298;-83
2021/08/26 00:09:17;;;;;;;48.75;8.57;;;;;;;;;;5037447;28;20025;-83
2021/08/26 00:11:44;;;;;;;51.88;9.63;;;;;;;;;;5034243;28;20836;-82
2021/08/26 00:14:10;;;;;;;40.72;8.60;;;;;;;;;;5034404;28;20166;-83
2021/08/26 00:16:53;;;;;;;51.50;9.75;;;;;;;;;;5033461;28;20084;-82
2021/08/26 00:19:20;;;;;;;52.08;7.78;;;;;;;;;;5031971;28;20028;-82
2021/08/26 00:21:45;;;;;;;58.17;8.90;;;;;;;;;;5033060;28;20025;-82
2021/08/26 00:24:12;;;;;;;48.63;8.88;;;;;;;;;;5036988;28;20082;-83
2021/08/26 00:26:37;;;;;;;48.80;8.70;;;;;;;;;;5036440;28;20029;-82
2021/08/26 00:29:03;;;;;;;44.87;8.83;;;;;;;;;;5037447;28;20024;-83
2021/08/26 00:31:29;;;;;;;41.20;9.18;;;;;;;;;;5035914;28;20648;-83
2021/08/26 00:33:54;;;;;;;44.92;8.95;;;;;;;;;;5033497;28;20021;-83
2021/08/26 00:36:20;;;;;;;51.50;8.20;;;;;;;;;;5033425;28;20033;-83
2021/08/26 00:38:45;;;;;;;50.47;9.07;;;;;;;;;;5034421;28;20287;-82
2021/08/26 00:41:17;;;;;;;40.13;8.07;;;;;;;;;;5031966;28;20065;-82
2021/08/26 00:43:43;;;;;;;46.85;10.02;;;;;;;;;;5035729;28;20279;-83
2021/08/26 00:46:12;;;;;;;53.30;9.82;;;;;;;;;;5038443;28;20041;-83
2021/08/26 00:48:38;;;;;;;46.63;9.07;;;;;;;;;;5034993;28;20025;-83
2021/08/26 00:51:03;;;;;;;42.00;9.20;;;;;;;;;;5036809;28;20086;-82
2021/08/26 00:53:28;;;;;;;42.67;9.73;;;;;;;;;;5034468;28;20506;-82
2021/08/26 00:55:53;;;;;;;44.33;9.00;;;;;;;;;;5035316;28;20021;-82
2021/08/26 00:58:20;;;;;;;41.63;7.90;;;;;;;;;;5033634;28;20283;-83
2021/08/26 01:00:54;;;;;;;44.25;9.85;;;;;;;;;;5033291;28;20488;-83
2021/08/26 01:03:26;;;;;;;49.53;8.88;;;;;;;;;;5033880;28;20519;-82
2021/08/26 01:05:51;;;;;;;;;;;;;;;;;;5038344;28;20025;-83
2021/08/26 01:08:19;;;;;;;39.55;7.32;;;;;;;;;;5035578;28;19916;-83
2021/08/26 01:10:46;;;;;;;49.10;9.00;;;;;;;;;;5034181;28;20537;-83
2021/08/26 01:13:12;;;;;;;33.58;7.22;;;;;;;;;;5036017;28;20393;-83
2021/08/26 01:15:37;;;;;;;42.72;8.55;;;;;;;;;;5036587;28;20057;-83
2021/08/26 01:18:03;;;;;;;37.25;8.52;;;;;;;;;;5035702;28;20051;-82
2021/08/26 01:20:28;;;;;;;49.20;7.97;;;;;;;;;;5034195;28;20033;-83
2021/08/26 01:22:53;;;;;;;37.03;8.77;;;;;;;;;;5032932;28;20033;-82
2021/08/26 01:25:21;;;;;;;31.80;7.63;;;;;;;;;;5034926;28;20021;-83
2021/08/26 01:27:51;;;;;;;34.95;8.85;;;;;;;;;;5036397;28;20044;-83
2021/08/26 01:30:18;;;;;;;35.85;8.88;;;;;;;;;;5036170;28;20028;-83
2021/08/26 01:32:44;;;;;;;34.15;9.73;;;;;;;;;;5032608;28;20025;-82
2021/08/26 01:35:10;;;;;;;29.50;6.93;;;;;;;;;;5034218;28;20035;-83
2021/08/26 01:37:36;;;;;;;42.00;9.82;;;;;;;;;;5032870;28;20033;-83
2021/08/26 01:40:02;;;;;;;31.55;7.95;;;;;;;;;;5037025;28;20033;-82
2021/08/26 01:42:28;;;;;;;37.97;8.23;;;;;;;;;;5034221;28;20033;-83
2021/08/26 01:44:53;;;;;;;29.10;6.82;;;;;;;;;;5035096;28;20025;-83
2021/08/26 01:47:18;;;;;;;43.65;7.78;;;;;;;;;;5034560;28;20026;-83
2021/08/26 01:49:45;;;;;;;44.25;8.30;;;;;;;;;;5032287;28;20018;-83
2021/08/26 01:52:10;;;;;;;34.15;7.50;;;;;;;;;;5037107;28;20018;-83
2021/08/26 01:54:36;;;;;;;34.72;8.13;;;;;;;;;;5034006;28;20083;-83
2021/08/26 01:57:02;;;;;;;34.40;7.47;;;;;;;;;;5033128;28;20851;-82
2021/08/26 01:59:27;;;;;;;36.95;8.32;;;;;;;;;;5033487;28;20253;-82
2021/08/26 02:01:52;;;;;;;39.45;6.97;;;;;;;;;;5032719;28;20094;-83
2021/08/26 02:04:17;;;;;;;24.50;6.13;;;;;;;;;;5029980;28;20036;-83
2021/08/26 02:06:42;;;;;;;33.53;6.60;;;;;;;;;;5037369;28;20664;-83
2021/08/26 02:09:08;;;;;;;33.97;6.93;;;;;;;;;;5036136;28;20292;-83
2021/08/26 02:11:33;;;;;;;27.63;6.40;;;;;;;;;;5034196;28;20270;-83
2021/08/26 02:13:58;;;;;;;27.50;6.53;;;;;;;;;;5036214;28;20335;-84
2021/08/26 02:16:23;;;;;;;44.90;7.13;;;;;;;;;;5035997;28;20049;-83
2021/08/26 02:18:48;;;;;;;29.05;6.60;;;;;;;;;;5035064;28;20252;-82
2021/08/26 02:21:14;;;;;;;30.58;5.90;;;;;;;;;;5034407;28;20072;-84
2021/08/26 02:23:39;;;;;;;23.70;6.87;;;;;;;;;;5030939;28;20025;-83
2021/08/26 02:26:04;;;;;;;30.95;6.40;;;;;;;;;;5032503;28;20047;-82
2021/08/26 02:28:29;;;;;;;24.20;6.03;;;;;;;;;;5032040;28;20025;-83
2021/08/26 02:30:54;;;;;;;27.70;6.47;;;;;;;;;;5031537;28;20871;-83
2021/08/26 02:33:20;;;;;;;28.57;6.50;;;;;;;;;;5030882;28;20026;-82
2021/08/26 02:35:45;;;;;;;20.45;6.03;;;;;;;;;;5032405;28;20268;-83
2021/08/26 02:38:10;;;;;;;34.28;6.18;;;;;;;;;;5036182;28;20029;-83
2021/08/26 02:40:35;;;;;;;22.50;5.97;;;;;;;;;;5036900;28;20030;-83
2021/08/26 02:43:01;;;;;;;20.50;5.13;;;;;;;;;;5035911;28;20025;-82
2021/08/26 02:45:26;;;;;;;20.20;6.43;;;;;;;;;;5032210;28;20025;-82
2021/08/26 02:47:51;;;;;;;12.50;3.60;;;;;;;;;;5032473;28;20287;-82
2021/08/26 02:50:16;;;;;;;11.80;3.00;;;;;;;;;;5031634;28;20369;-82
2021/08/26 02:52:41;;;;;;;13.57;3.00;;;;;;;;;;5030960;28;20025;-82
2021/08/26 02:55:07;;;;;;;14.03;3.03;;;;;;;;;;5035027;28;20471;-82
2021/08/26 02:57:32;;;;;;;11.13;2.40;;;;;;;;;;5032996;28;20029;-82
2021/08/26 02:59:57;;;;;;;13.00;2.17;;;;;;;;;;5033603;28;20033;-83
2021/08/26 03:02:22;;;;;;;11.47;2.43;;;;;;;;;;5039965;28;20033;-83
2021/08/26 03:04:47;;;;;;;18.40;2.27;;;;;;;;;;5039055;28;20018;-83
2021/08/26 03:07:13;;;;;;;8.07;2.23;;;;;;;;;;5038973;28;20025;-83
2021/08/26 03:09:38;;;;;;;10.63;2.47;;;;;;;;;;5037001;28;20282;-83
2021/08/26 03:12:04;;;;;;;12.13;2.40;;;;;;;;;;5036386;28;20026;-83
2021/08/26 03:14:29;;;;;;;9.57;2.05;;;;;;;;;;5034612;28;20021;-82
2021/08/26 03:16:54;;;;;;;8.63;1.83;;;;;;;;;;5034796;28;20088;-82
2021/08/26 03:19:19;;;;;;;9.27;2.90;;;;;;;;;;5034049;28;20260;-82
2021/08/26 03:21:44;;;;;;;11.13;2.23;;;;;;;;;;5035484;28;20248;-83
2021/08/26 03:24:09;;;;;;;11.03;2.53;;;;;;;;;;5041190;28;20021;-83
2021/08/26 03:26:35;;;;;;;6.13;1.70;;;;;;;;;;5038414;28;20740;-83
2021/08/26 03:29:00;;;;;;;8.68;2.05;;;;;;;;;;5038799;28;20097;-83
2021/08/26 03:31:25;;;;;;;11.13;2.00;;;;;;;;;;5037293;28;20034;-83
2021/08/26 03:33:50;;;;;;;9.80;2.47;;;;;;;;;;5036727;28;20029;-83
2021/08/26 03:36:15;;;;;;;12.57;3.00;;;;;;;;;;5034877;28;20355;-82
2021/08/26 03:38:41;;;;;;;11.25;1.85;;;;;;;;;;5034685;28;20264;-82
2021/08/26 03:41:06;;;;;;;6.88;1.77;;;;;;;;;;5032387;28;20112;-83
2021/08/26 03:43:31;;;;;;;8.90;1.40;;;;;;;;;;5033984;28;20021;-83
2021/08/26 03:45:57;;;;;;;5.57;1.57;;;;;;;;;;5040062;28;20627;-83
2021/08/26 03:48:22;;;;;;;6.57;1.50;;;;;;;;;;5038320;28;20100;-83
2021/08/26 03:50:47;;;;;;;11.77;1.57;;;;;;;;;;5038328;28;20363;-83
2021/08/26 03:53:12;;;;;;;7.50;1.73;;;;;;;;;;5038433;28;20025;-83
2021/08/26 03:55:37;;;;;;;6.27;1.50;;;;;;;;;;5037319;28;20044;-83
2021/08/26 03:58:03;;;;;;;6.63;1.50;;;;;;;;;;5034419;28;20743;-83
2021/08/26 04:00:28;;;;;;;9.13;2.03;;;;;;;;;;5035375;28;20072;-82
2021/08/26 04:02:53;;;;;;;4.60;1.47;;;;;;;;;;5035052;28;20053;-83
2021/08/26 04:05:18;;;;;;;4.67;1.27;;;;;;;;;;5033138;28;20021;-82
2021/08/26 04:07:43;;;;;;;13.67;1.33;;;;;;;;;;5036894;28;20310;-83
2021/08/26 04:10:09;;;;;;;6.40;1.20;;;;;;;;;;5037401;28;20024;-83
2021/08/26 04:12:34;;;;;;;5.95;1.67;;;;;;;;;;5037627;28;20283;-83
2021/08/26 04:14:59;;;;;;;5.07;1.58;;;;;;;;;;5033893;28;20022;-83
2021/08/26 04:17:24;;;;;;;4.10;1.33;;;;;;;;;;5037747;28;20053;-83
2021/08/26 04:19:49;;;;;;;11.67;1.60;;;;;;;;;;5036812;28;20405;-83
2021/08/26 04:22:15;;;;;;;10.03;1.57;;;;;;;;;;5036542;28;20290;-83
2021/08/26 04:24:40;;;;;;;6.93;1.50;;;;;;;;;;5033626;28;20295;-83
2021/08/26 04:27:05;;;;;;;6.95;1.40;;;;;;;;;;5034801;28;20021;-83
2021/08/26 04:29:30;;;;;;;6.40;1.50;;;;;;;;;;5036758;28;20021;-83
2021/08/26 04:31:56;;;;;;;4.67;1.40;;;;;;;;;;5037192;28;20120;-83
2021/08/26 04:34:21;;;;;;;5.50;1.53;;;;;;;;;;5035304;28;20260;-83
2021/08/26 04:36:46;;;;;;;8.43;1.23;;;;;;;;;;5033826;28;20263;-83
2021/08/26 04:39:11;;;;;;;7.67;1.60;;;;;;;;;;5035380;28;20347;-83
2021/08/26 04:41:38;;;;;;;5.32;1.38;;;;;;;;;;5034284;28;20485;-83
2021/08/26 04:44:03;;;;;;;8.07;1.63;;;;;;;;;;5034492;28;20033;-83
2021/08/26 04:46:28;;;;;;;6.95;1.35;;;;;;;;;;5035151;28;20485;-83
2021/08/26 04:48:54;;;;;;;5.50;1.80;;;;;;;;;;5033176;28;20026;-83
2021/08/26 04:51:19;;;;;;;3.90;1.83;;;;;;;;;;5037494;28;20466;-83
2021/08/26 04:53:44;;;;;;;7.37;1.27;;;;;;;;;;5036065;28;20469;-83
2021/08/26 04:56:09;;;;;;;10.47;1.37;;;;;;;;;;5037067;28;20311;-83
2021/08/26 04:58:34;;;;;;;5.77;1.33;;;;;;;;;;5035956;28;20124;-83
2021/08/26 05:01:00;;;;;;;9.70;1.47;;;;;;;;;;5034828;28;20267;-83
2021/08/26 05:03:25;;;;;;;4.67;1.30;;;;;;;;;;5033638;28;20303;-83
2021/08/26 05:05:50;;;;;;;9.57;1.50;;;;;;;;;;5033683;28;20555;-83
2021/08/26 05:08:15;;;;;;;4.85;1.00;;;;;;;;;;5031015;28;20260;-82
2021/08/26 05:10:40;;;;;;;8.30;1.37;;;;;;;;;;5032709;28;20530;-82
2021/08/26 05:13:07;;;;;;;7.60;1.80;;;;;;;;;;5030634;28;20052;-82
2021/08/26 05:15:32;;;;;;;6.38;1.20;;;;;;;;;;5031377;28;20121;-82
2021/08/26 05:17:57;;;;;;;5.93;1.20;;;;;;;;;;5036487;28;20067;-83
2021/08/26 05:20:22;;;;;;;6.97;1.30;;;;;;;;;;5037323;28;20025;-83
2021/08/26 05:22:47;;;;;;;9.73;1.33;;;;;;;;;;5037548;28;20045;-83
2021/08/26 05:25:12;;;;;;;7.77;1.53;;;;;;;;;;5036539;28;20603;-83
2021/08/26 05:27:38;;;;;;;6.82;1.52;;;;;;;;;;5034648;28;20026;-83
2021/08/26 05:30:03;;;;;;;6.97;1.48;;;;;;;;;;5035080;28;20091;-82
2021/08/26 05:32:28;;;;;;;4.85;1.52;;;;;;;;;;5033437;28;20041;-83
2021/08/26 05:34:53;;;;;;;11.07;1.97;;;;;;;;;;5031726;28;20068;-83
2021/08/26 05:37:19;;;;;;;6.50;1.37;;;;;;;;;;5032295;28;20824;-82
2021/08/26 05:39:45;;;;;;;4.37;0.90;;;;;;;;;;5032608;28;20075;-82
2021/08/26 05:42:10;;;;;;;10.13;1.13;;;;;;;;;;5034382;28;20472;-83
2021/08/26 05:44:36;;;;;;;9.77;1.30;;;;;;;;;;5037132;28;20099;-83
2021/08/26 05:47:01;;;;;;;7.70;1.80;;;;;;;;;;5033958;28;20264;-83
2021/08/26 05:49:27;;;;;;;7.53;1.33;;;;;;;;;;5035213;28;20028;-83
2021/08/26 05:51:52;;;;;;;5.95;1.20;;;;;;;;;;5036181;28;20032;-83
2021/08/26 05:54:17;;;;;;;7.50;1.30;;;;;;;;;;5034359;28;20038;-83
2021/08/26 05:56:42;;;;;;;8.97;1.90;;;;;;;;;;5032849;28;20029;-82
2021/08/26 05:59:08;;;;;;;5.00;1.48;;;;;;;;;;5033269;28;20156;-83
2021/08/26 06:01:33;;;;;;;9.20;1.23;;;;;;;;;;5032239;28;20029;-83
2021/08/26 06:03:58;;;;;;;5.73;1.37;;;;;;;;;;5030206;28;20030;-83
2021/08/26 06:06:23;;;;;;;5.13;1.07;;;;;;;;;;5037090;28;20416;-83
2021/08/26 06:08:49;;;;;;;9.40;1.50;;;;;;;;;;5036343;28;20406;-83
2021/08/26 06:11:14;;;;;;;9.48;2.13;;;;;;;;;;5034713;28;20259;-83
2021/08/26 06:13:39;;;;;;;2.70;0.90;;;;;;;;;;5033747;28;20064;-83
2021/08/26 06:16:04;;;;;;;10.10;1.50;;;;;;;;;;5035914;28;20059;-83
2021/08/26 06:18:30;;;;;;;8.18;1.38;;;;;;;;;;5033835;28;20256;-82
2021/08/26 06:20:55;;;;;;;7.90;1.50;;;;;;;;;;5032821;28;20358;-83
2021/08/26 06:23:20;;;;;;;8.23;1.85;;;;;;;;;;5030404;28;20053;-82
2021/08/26 06:25:45;;;;;;;6.53;1.47;;;;;;;;;;5031752;28;20029;-82
2021/08/26 06:28:11;;;;;;;7.07;0.90;;;;;;;;;;5033578;28;20272;-83
2021/08/26 06:30:36;;;;;;;5.03;1.10;;;;;;;;;;5036322;28;20044;-83
2021/08/26 06:33:02;;;;;;;6.63;1.30;;;;;;;;;;5034388;28;20033;-82
2021/08/26 06:35:28;;;;;;;6.78;1.92;;;;;;;;;;5032517;28;20036;-83
2021/08/26 06:37:53;;;;;;;7.17;1.30;;;;;;;;;;5033114;28;20069;-83
2021/08/26 06:40:18;;;;;;;5.45;1.10;;;;;;;;;;5033989;28;20275;-83
2021/08/26 06:42:43;;;;;;;8.83;1.60;;;;;;;;;;5032628;28;20436;-83
2021/08/26 06:45:09;;;;;;;17.88;1.73;;;;;;;;;;5030924;28;20024;-83
2021/08/26 06:47:34;;;;;;;8.10;1.60;;;;;;;;;;5032984;28;20013;-83
2021/08/26 06:49:59;;;;;;;7.60;1.20;;;;;;;;;;5035957;28;20080;-83
2021/08/26 06:52:24;;;;;;;6.30;1.27;;;;;;;;;;5034698;28;20516;-83
2021/08/26 06:54:50;;;;;;;8.77;1.50;;;;;;;;;;5031202;28;20439;-83
2021/08/26 06:57:15;;;;;;;4.97;1.30;;;;;;;;;;5034941;28;20268;-83
2021/08/26 06:59:40;;;;;;;15.03;3.30;;;;;;;;;;5034013;28;20256;-83
2021/08/26 07:02:05;;;;;;;6.28;1.10;;;;;;;;;;5032945;28;20252;-82
2021/08/26 07:04:30;;;;;;;4.57;0.90;;;;;;;;;;5031140;28;20036;-83
2021/08/26 07:06:56;;;;;;;10.37;1.20;;;;;;;;;;5034878;28;20028;-83
2021/08/26 07:09:21;;;;;;;10.23;1.88;;;;;;;;;;5035586;28;20252;-83
2021/08/26 07:11:47;;;;;;;3.10;1.10;;;;;;;;;;5034292;28;20104;-83
2021/08/26 07:14:12;;;;;;;7.63;1.48;;;;;;;;;;5033091;28;20033;-83
2021/08/26 07:16:38;;;;;;;4.80;1.00;;;;;;;;;;5032131;28;20606;-83
2021/08/26 07:19:03;;;;;;;2.65;0.90;;;;;;;;;;5033351;28;20021;-83
2021/08/26 07:21:28;;;;;;;6.83;1.37;;;;;;;;;;5033338;28;20103;-83
2021/08/26 07:23:53;;;;;;;7.03;1.38;;;;;;;;;;5033729;28;20817;-82
2021/08/26 07:26:19;;;;;;;4.13;0.90;;;;;;;;;;5032379;28;20025;-83
2021/08/26 07:28:44;;;;;;;8.32;1.10;;;;;;;;;;5032872;28;20028;-83
2021/08/26 07:31:10;;;;;;;6.45;1.10;;;;;;;;;;5034262;28;20473;-83
2021/08/26 07:33:35;;;;;;;4.90;0.98;;;;;;;;;;5034847;28;20037;-83
2021/08/26 07:36:01;;;;;;;13.25;1.33;;;;;;;;;;5031739;28;20025;-83
2021/08/26 07:38:26;;;;;;;3.40;1.27;;;;;;;;;;5032682;28;20029;-83
2021/08/26 07:40:52;;;;;;;5.13;1.42;;;;;;;;;;5035025;28;20805;-83
2021/08/26 07:43:17;;;;;;;3.72;0.90;;;;;;;;;;5034367;28;20025;-83
2021/08/26 07:45:42;;;;;;;3.17;0.93;;;;;;;;;;5037842;28;20032;-83
2021/08/26 07:48:07;;;;;;;3.80;0.90;;;;;;;;;;5037022;28;20072;-83
2021/08/26 07:50:32;;;;;;;12.10;1.10;;;;;;;;;;5038012;28;20027;-83
2021/08/26 07:52:58;;;;;;;4.63;1.03;;;;;;;;;;5039019;28;20252;-83
2021/08/26 07:55:23;;;;;;;4.20;1.00;;;;;;;;;;5035382;28;20282;-83
2021/08/26 07:57:48;;;;;;;5.93;1.00;;;;;;;;;;5034124;28;20260;-81
2021/08/26 08:00:13;;;;;;;2.83;0.90;;;;;;;;;;5035682;28;20252;-82
2021/08/26 08:02:38;;;;;;;2.20;0.90;;;;;;;;;;5034608;28;20295;-83
2021/08/26 08:05:04;;;;;;;6.10;1.23;;;;;;;;;;5033873;28;20013;-82
2021/08/26 08:07:29;;;;;;;2.33;1.05;;;;;;;;;;5034822;28;20264;-83
2021/08/26 08:09:54;;;;;;;9.83;1.50;;;;;;;;;;5038080;28;20021;-83
2021/08/26 08:12:22;;;;;;;9.00;1.33;;;;;;;;;;5039097;28;20256;-83
2021/08/26 08:14:47;;;;;;;3.80;0.88;;;;;;;;;;5037713;28;20101;-83
2021/08/26 08:17:12;;;;;;;8.23;1.00;;;;;;;;;;5034891;28;20144;-82
2021/08/26 08:19:38;;;;;;;4.40;1.10;;;;;;;;;;5033999;28;20033;-83
2021/08/26 08:22:03;;;;;;;3.10;1.10;;;;;;;;;;5032610;28;20257;-82
2021/08/26 08:24:28;;;;;;;4.63;1.20;;;;;;;;;;5034093;28;20056;-83
2021/08/26 08:26:53;;;;;;;2.78;1.02;;;;;;;;;;5033047;28;20351;-83
2021/08/26 08:29:19;;;;;;;2.67;1.17;;;;;;;;;;5032973;28;20083;-82
2021/08/26 08:31:44;;;;;;;4.50;1.33;;;;;;;;;;5036089;28;20085;-83
2021/08/26 08:34:09;;;;;;;3.80;0.90;;;;;;;;;;5038942;28;20041;-83
2021/08/26 08:36:34;;;;;;;8.87;1.20;;;;;;;;;;5036122;28;20271;-83
2021/08/26 08:38:59;;;;;;;4.80;0.90;;;;;;;;;;5036239;28;20283;-83
2021/08/26 08:41:25;;;;;;;2.63;0.80;;;;;;;;;;5033419;28;20302;-83
2021/08/26 08:43:50;;;;;;;3.88;0.98;;;;;;;;;;5032174;28;20374;-83
2021/08/26 08:46:18;;;;;;;4.75;1.10;;;;;;;;;;5032012;28;20052;-82
2021/08/26 08:48:43;;;;;;;3.72;1.02;;;;;;;;;;5031568;28;20245;-83
2021/08/26 08:51:09;;;;;;;1.83;0.82;;;;;;;;;;5031642;28;20025;-82
2021/08/26 08:53:35;;;;;;;3.83;1.10;;;;;;;;;;5034269;28;20045;-83
2021/08/26 08:56:02;;;;;;;5.95;1.10;;;;;;;;;;5039511;28;20032;-83
2021/08/26 08:58:27;;;;;;;4.82;1.25;;;;;;;;;;5035913;28;20381;-83
2021/08/26 09:00:53;;;;;;;6.07;1.17;;;;;;;;;;5035951;28;20040;-83
2021/08/26 09:03:18;;;;;;;2.67;0.95;;;;;;;;;;5033304;28;20025;-83
2021/08/26 09:05:50;;;;;;;5.68;1.52;;;;;;;;;;5033802;28;20095;-82
2021/08/26 09:08:16;;;;;;;2.63;0.73;;;;;;;;;;5033302;28;20064;-83
2021/08/26 09:10:41;;;;;;;4.72;0.90;;;;;;;;;;5032699;28;20411;-83
2021/08/26 09:13:08;;;;;;;10.17;1.07;;;;;;;;;;5031011;28;20261;-82
2021/08/26 09:15:33;;;;;;;6.78;1.20;;;;;;;;;;5033048;28;20754;-83
2021/08/26 09:18:31;;;;;;;8.00;1.10;;;;;;;;;;5036235;28;20031;-83
2021/08/26 09:21:00;;;;;;;10.35;1.52;;;;;;;;;;5014256;28;20033;-83
2021/08/26 09:23:27;;;;;;;4.60;1.08;;;;;;;;;;5037029;28;20384;-83
2021/08/26 09:25:54;;;;;;;7.78;1.55;;;;;;;;;;5036030;28;20485;-83
2021/08/26 09:28:27;;;;;;;6.43;0.95;;;;;;;;;;5034860;28;20790;-83
2021/08/26 09:31:11;;;;;;;3.15;1.00;;;;;;;;;;5033826;28;20021;-83
2021/08/26 09:33:50;;;;;;;4.40;1.02;;;;;;;;;;5032770;28;20393;-83
2021/08/26 09:36:21;;;;;;;4.93;0.90;;;;;;;;;;5030718;28;20060;-83
2021/08/26 09:38:46;;;;;;;;;;;;;;;;;;5038042;28;20081;-83
2021/08/26 09:41:14;;;;;;;6.88;1.83;;;;;;;;;;5037835;28;19955;-83
2021/08/26 09:43:40;;;;;;;9.23;2.05;;;;;;;;;;5036590;28;20053;-83
2021/08/26 09:46:05;;;;;;;6.70;1.00;;;;;;;;;;5033840;28;20057;-83
2021/08/26 09:48:30;;;;;;;16.23;1.17;;;;;;;;;;5033692;28;20072;-83
2021/08/26 09:50:55;;;;;;;18.40;1.57;;;;;;;;;;5037228;28;20079;-83
2021/08/26 09:53:22;;;;;;;6.60;1.17;;;;;;;;;;5036115;28;20071;-83
2021/08/26 09:55:50;;;;;;;8.10;1.10;;;;;;;;;;5035235;28;20291;-83
2021/08/26 09:58:16;;;;;;;10.77;1.20;;;;;;;;;;5031874;28;20017;-83
2021/08/26 10:00:41;;;;;;;5.20;1.35;;;;;;;;;;5032085;28;20108;-83
2021/08/26 10:03:10;;;;;;;2.10;0.80;;;;;;;;;;5031639;28;20274;-83
2021/08/26 10:05:39;;;;;;;3.60;1.00;;;;;;;;;;5031828;28;20264;-84
2021/08/26 10:08:06;;;;;;;2.92;1.10;;;;;;;;;;5036412;28;20021;-83
2021/08/26 10:10:32;;;;;;;4.15;1.13;;;;;;;;;;5035745;28;20022;-83
2021/08/26 10:12:57;;;;;;;2.53;0.98;;;;;;;;;;5036826;28;20025;-83
2021/08/26 10:15:22;;;;;;;7.13;1.38;;;;;;;;;;5035322;28;20493;-83
2021/08/26 10:17:48;;;;;;;7.07;1.43;;;;;;;;;;5034389;28;20447;-83
2021/08/26 10:20:13;;;;;;;6.35;1.13;;;;;;;;;;5033398;28;20272;-83
2021/08/26 10:22:38;;;;;;;3.63;1.10;;;;;;;;;;5032101;28;20470;-82
2021/08/26 10:25:04;;;;;;;4.57;1.13;;;;;;;;;;5031090;28;20113;-83
2021/08/26 10:27:30;;;;;;;2.75;1.10;;;;;;;;;;5038146;28;20013;-84
2021/08/26 10:29:56;;;;;;;3.72;1.20;;;;;;;;;;5035236;28;20021;-83
2021/08/26 10:32:24;;;;;;;7.97;1.00;;;;;;;;;;5035636;28;20087;-84
2021/08/26 10:35:07;;;;;;;5.10;1.10;;;;;;;;;;5036517;28;20107;-82
2021/08/26 10:37:42;;;;;;;3.05;1.00;;;;;;;;;;5035182;28;20022;-83
2021/08/26 10:40:27;;;;;;;3.13;0.82;;;;;;;;;;5032827;28;20025;-84
2021/08/26 10:42:53;;;;;;;4.53;0.93;;;;;;;;;;5030355;28;20028;-82
2021/08/26 10:45:21;;;;;;;8.50;1.33;;;;;;;;;;5029447;28;20413;-83
2021/08/26 10:47:49;;;;;;;3.65;1.15;;;;;;;;;;5033951;28;20014;-83
2021/08/26 10:50:17;;;;;;;8.98;0.93;;;;;;;;;;5034775;28;20033;-83
2021/08/26 10:52:55;;;;;;;3.45;1.10;;;;;;;;;;5035665;28;20022;-83
2021/08/26 10:55:31;;;;;;;8.68;1.73;;;;;;;;;;5034105;28;20037;-83
2021/08/26 10:58:15;;;;;;;2.67;1.10;;;;;;;;;;5034546;28;20701;-82
2021/08/26 11:00:42;;;;;;;4.55;1.00;;;;;;;;;;5033106;28;20033;-83
2021/08/26 11:03:07;;;;;;;3.17;1.00;;;;;;;;;;5032039;28;20021;-83
2021/08/26 11:05:36;;;;;;;3.83;1.10;;;;;;;;;;5031482;28;20036;-83
2021/08/26 11:08:20;;;;;;;6.45;1.20;;;;;;;;;;5031029;28;20040;-83
2021/08/26 11:10:46;;;;;;;5.47;0.93;;;;;;;;;;5030361;28;20061;-82
2021/08/26 11:13:28;;;;;;;2.67;1.00;;;;;;;;;;5030950;28;20425;-83
2021/08/26 11:15:53;;;;;;;7.45;1.05;;;;;;;;;;5035905;28;20731;-84
2021/08/26 11:18:28;;;;;;;5.25;1.02;;;;;;;;;;5040385;28;20150;-84
2021/08/26 11:20:54;;;;;;;4.97;1.35;;;;;;;;;;5038541;28;20028;-83
2021/08/26 11:23:19;;;;;;;3.42;0.90;;;;;;;;;;5036341;28;20029;-83
2021/08/26 11:25:44;;;;;;;2.90;1.00;;;;;;;;;;5037369;28;20040;-82
2021/08/26 11:28:29;;;;;;;5.60;0.80;;;;;;;;;;5034478;28;20748;-83
2021/08/26 11:31:12;;;;;;;2.28;1.05;;;;;;;;;;5032989;28;20261;-83
2021/08/26 11:33:37;;;;;;;2.30;0.90;;;;;;;;;;5034361;28;20108;-83
2021/08/26 11:36:09;;;;;;;3.22;1.00;;;;;;;;;;5034239;28;20163;-84
2021/08/26 11:38:48;;;;;;;5.72;1.10;;;;;;;;;;5039670;28;20025;-83
2021/08/26 11:41:13;;;;;;;4.13;1.02;;;;;;;;;;5039497;28;20025;-83
2021/08/26 11:43:42;;;;;;;5.55;1.50;;;;;;;;;;5038721;28;20032;-83
2021/08/26 11:46:11;;;;;;;4.03;1.48;;;;;;;;;;5036831;28;20029;-83
2021/08/26 11:48:45;;;;;;;5.70;1.48;;;;;;;;;;5035531;28;20505;-83
2021/08/26 11:51:18;;;;;;;4.90;1.23;;;;;;;;;;5035455;28;20025;-83
2021/08/26 11:53:43;;;;;;;4.45;1.20;;;;;;;;;;5034956;28;20400;-82
2021/08/26 11:56:09;;;;;;;7.37;1.37;;;;;;;;;;5032797;28;20029;-83
2021/08/26 11:58:34;;;;;;;6.67;1.63;;;;;;;;;;5034100;28;20362;-83
2021/08/26 12:00:59;;;;;;;6.37;1.10;;;;;;;;;;5034683;28;20676;-83
2021/08/26 12:03:25;;;;;;;3.13;1.10;;;;;;;;;;5039889;28;20304;-83
2021/08/26 12:05:51;;;;;;;6.78;1.25;;;;;;;;;;5039146;28;20370;-83
2021/08/26 12:08:16;;;;;;;5.25;1.48;;;;;;;;;;5038599;28;20083;-83
2021/08/26 12:10:45;;;;;;;8.07;1.93;;;;;;;;;;5038047;28;20485;-83
2021/08/26 12:13:15;;;;;;;2.97;1.00;;;;;;;;;;5036798;28;20644;-83
2021/08/26 12:15:44;;;;;;;6.07;1.40;;;;;;;;;;5035751;28;20053;-83
2021/08/26 12:18:11;;;;;;;7.88;1.10;;;;;;;;;;5034703;28;20024;-83
2021/08/26 12:20:40;;;;;;;9.82;1.50;;;;;;;;;;5033745;28;20099;-83
2021/08/26 12:23:06;;;;;;;6.53;1.45;;;;;;;;;;5039272;28;20029;-84
2021/08/26 12:25:35;;;;;;;6.43;1.52;;;;;;;;;;5035901;28;20028;-83
2021/08/26 12:28:02;;;;;;;7.38;1.65;;;;;;;;;;5036570;28;20422;-83
2021/08/26 12:30:32;;;;;;;4.05;1.27;;;;;;;;;;5033841;28;20108;-83
2021/08/26 12:33:06;;;;;;;3.30;1.33;;;;;;;;;;5034557;28;20541;-83
2021/08/26 12:35:38;;;;;;;26.63;3.38;;;;;;;;;;5032069;28;20037;-83
2021/08/26 12:38:04;;;;;;;6.15;1.58;;;;;;;;;;5033555;28;20025;-83
2021/08/26 12:40:30;;;;;;;4.15;1.50;;;;;;;;;;5036655;28;20029;-83
2021/08/26 12:42:55;;;;;;;4.30;1.40;;;;;;;;;;5035920;28;20049;-83
2021/08/26 12:45:21;;;;;;;6.03;1.70;;;;;;;;;;5034965;28;20369;-84
2021/08/26 12:47:46;;;;;;;5.40;1.20;;;;;;;;;;5037980;28;20026;-84
2021/08/26 12:50:11;;;;;;;4.67;1.13;;;;;;;;;;5035137;28;20125;-84
2021/08/26 12:52:37;;;;;;;4.40;1.37;;;;;;;;;;5035838;28;20010;-84
2021/08/26 12:55:05;;;;;;;6.93;1.30;;;;;;;;;;5035495;28;20032;-83
2021/08/26 12:57:33;;;;;;;6.38;1.33;;;;;;;;;;5034550;28;20036;-83
2021/08/26 12:59:58;;;;;;;6.50;1.58;;;;;;;;;;5034204;28;20108;-83
2021/08/26 13:02:23;;;;;;;7.57;1.63;;;;;;;;;;5032735;28;20513;-82
2021/08/26 13:05:05;;;;;;;3.37;1.13;;;;;;;;;;5032680;28;20147;-83
2021/08/26 13:07:31;;;;;;;3.35;1.25;;;;;;;;;;5035491;28;20033;-83
2021/08/26 13:09:57;;;;;;;4.63;1.42;;;;;;;;;;5037053;28;20075;-84
2021/08/26 13:12:23;;;;;;;7.53;1.52;;;;;;;;;;5037252;28;20017;-83
2021/08/26 13:14:49;;;;;;;6.97;2.40;;;;;;;;;;5035272;28;20091;-83
2021/08/26 13:17:15;;;;;;;6.70;1.77;;;;;;;;;;5033825;28;20076;-83
2021/08/26 13:19:41;;;;;;;3.00;1.80;;;;;;;;;;5033215;28;20052;-83
2021/08/26 13:22:20;;;;;;;3.40;1.65;;;;;;;;;;5033309;28;20104;-83
2021/08/26 13:24:47;;;;;;;3.25;1.23;;;;;;;;;;5030874;28;20037;-83
2021/08/26 13:27:12;;;;;;;3.83;1.67;;;;;;;;;;5031989;28;20505;-83
2021/08/26 13:29:37;;;;;;;3.85;1.52;;;;;;;;;;5031644;28;20064;-83
2021/08/26 13:32:03;;;;;;;6.30;1.47;;;;;;;;;;5034436;28;20017;-84
2021/08/26 13:34:28;;;;;;;4.20;1.27;;;;;;;;;;5034035;28;20037;-83
2021/08/26 13:36:53;;;;;;;5.90;2.50;;;;;;;;;;5035677;28;20413;-84
2021/08/26 13:39:18;;;;;;;4.40;1.90;;;;;;;;;;5034839;28;20961;-83
2021/08/26 13:41:44;;;;;;;7.17;1.80;;;;;;;;;;5034563;28;20091;-83
2021/08/26 13:44:09;;;;;;;6.60;1.97;;;;;;;;;;5033618;28;20079;-83
2021/08/26 13:46:35;;;;;;;4.77;1.90;;;;;;;;;;5033035;28;20264;-83
2021/08/26 13:49:01;;;;;;;7.88;1.60;;;;;;;;;;5032430;28;20022;-83
2021/08/26 13:51:26;;;;;;;4.90;1.73;;;;;;;;;;5030137;28;20040;-83
2021/08/26 13:53:51;;;;;;;6.07;1.65;;;;;;;;;;5031447;28;20035;-83
2021/08/26 13:56:17;;;;;;;10.90;1.98;;;;;;;;;;5033176;28;20108;-83
2021/08/26 13:58:45;;;;;;;7.43;1.98;;;;;;;;;;5036247;28;20079;-83
2021/08/26 14:01:11;;;;;;;10.82;2.28;;;;;;;;;;5033670;28;20029;-83
2021/08/26 14:03:36;;;;;;;6.97;2.17;;;;;;;;;;5034616;28;20036;-83
2021/08/26 14:06:02;;;;;;;4.57;1.70;;;;;;;;;;5033824;28;20021;-83
2021/08/26 14:08:27;;;;;;;7.35;1.80;;;;;;;;;;5033691;28;20021;-83
2021/08/26 14:10:52;;;;;;;5.33;1.73;;;;;;;;;;5032105;28;20110;-83
2021/08/26 14:13:17;;;;;;;10.07;1.80;;;;;;;;;;5029732;28;20029;-83
2021/08/26 14:15:43;;;;;;;4.90;1.87;;;;;;;;;;5031126;28;20524;-83
2021/08/26 14:18:08;;;;;;;8.90;2.03;;;;;;;;;;5030763;28;20120;-83
2021/08/26 14:20:33;;;;;;;5.23;2.00;;;;;;;;;;5032366;28;20355;-84
2021/08/26 14:22:58;;;;;;;10.45;2.00;;;;;;;;;;5037483;28;20491;-83
2021/08/26 14:25:24;;;;;;;15.60;2.20;;;;;;;;;;5034750;28;20021;-82
2021/08/26 14:27:49;;;;;;;4.70;1.83;;;;;;;;;;5034926;28;20536;-83
2021/08/26 14:30:14;;;;;;;5.33;1.70;;;;;;;;;;5034226;28;20021;-83
2021/08/26 14:32:39;;;;;;;7.97;1.83;;;;;;;;;;5033676;28;20087;-83
2021/08/26 14:35:06;;;;;;;5.80;1.85;;;;;;;;;;5030948;28;20632;-83
2021/08/26 14:37:31;;;;;;;11.52;2.13;;;;;;;;;;5031752;28;20018;-83
2021/08/26 14:39:56;;;;;;;8.48;1.80;;;;;;;;;;5031123;28;20032;-83
2021/08/26 14:42:21;;;;;;;12.63;2.80;;;;;;;;;;5029157;28;20018;-83